createdAt,value
2018-09-09T00:00:20.388Z,999.90
2018-09-09T00:02:48.403Z,999.90
2018-09-09T00:05:16.431Z,999.90
2018-09-09T00:07:44.447Z,999.90
2018-09-09T00:10:12.495Z,999.90
2018-09-09T00:12:40.511Z,999.90
2018-09-09T00:15:08.547Z,999.90
2018-09-09T00:17:36.562Z,999.90
2018-09-09T00:20:04.855Z,999.90
2018-09-09T00:22:32.884Z,999.90
2018-09-09T00:25:00.911Z,999.90
2018-09-09T00:27:28.931Z,999.90
2018-09-09T00:29:56.963Z,999.90
2018-09-09T00:32:24.999Z,999.90
2018-09-09T00:34:53.082Z,999.90
2018-09-09T00:37:21.099Z,999.90
2018-09-09T00:39:49.139Z,999.90
2018-09-09T00:42:17.190Z,999.90
2018-09-09T00:44:45.231Z,999.90
2018-09-09T00:47:13.259Z,999.90
2018-09-09T00:49:46.843Z,999.90
2018-09-09T00:52:20.328Z,998.60
2018-09-09T00:54:48.405Z,977.87
2018-09-09T00:57:16.419Z,999.90
2018-09-09T00:59:44.511Z,999.90
2018-09-09T01:02:12.823Z,999.90
2018-09-09T01:04:40.863Z,999.90
2018-09-09T01:07:08.882Z,999.90
2018-09-09T01:09:36.911Z,984.30
2018-09-09T01:12:05.099Z,999.90
2018-09-09T01:14:33.996Z,999.90
2018-09-09T01:17:02.007Z,999.90
2018-09-09T01:19:30.041Z,999.90
2018-09-09T01:21:58.047Z,999.90
2018-09-09T01:24:26.075Z,999.90
2018-09-09T01:26:54.490Z,999.90
2018-09-09T01:29:22.707Z,999.90
2018-09-09T01:31:50.712Z,999.90
2018-09-09T01:34:18.732Z,999.90
2018-09-09T01:36:46.746Z,999.90
2018-09-09T01:39:14.771Z,999.90
2018-09-09T01:41:42.804Z,999.90
2018-09-09T01:44:10.806Z,999.90
2018-09-09T01:46:38.814Z,999.90
2018-09-09T01:49:06.820Z,999.90
2018-09-09T01:51:34.837Z,999.90
2018-09-09T01:54:02.838Z,999.90
2018-09-09T01:56:30.851Z,999.90
2018-09-09T01:58:58.844Z,999.90
2018-09-09T02:01:26.868Z,999.90
2018-09-09T02:03:54.879Z,999.90
2018-09-09T02:06:22.883Z,999.90
2018-09-09T02:08:50.895Z,999.90
2018-09-09T02:11:18.912Z,999.90
2018-09-09T02:13:46.931Z,999.90
2018-09-09T02:16:14.935Z,999.90
2018-09-09T02:18:42.929Z,999.90
2018-09-09T02:21:10.939Z,999.90
2018-09-09T02:23:38.934Z,999.90
2018-09-09T02:26:06.975Z,999.90
2018-09-09T02:28:34.975Z,999.90
2018-09-09T02:31:02.976Z,999.13
2018-09-09T02:33:30.982Z,999.90
2018-09-09T02:35:58.996Z,992.00
2018-09-09T02:41:09.606Z,980.10
2018-09-09T02:43:37.644Z,985.87
2018-09-09T02:46:05.600Z,999.90
2018-09-09T02:48:33.591Z,999.37
2018-09-09T02:51:01.770Z,991.77
2018-09-09T02:53:29.764Z,999.90
2018-09-09T02:55:57.759Z,999.90
2018-09-09T02:58:25.775Z,985.93
2018-09-09T03:00:53.772Z,996.57
2018-09-09T03:03:21.771Z,980.03
2018-09-09T03:05:49.810Z,978.70
2018-09-09T03:08:17.823Z,952.80
2018-09-09T03:10:45.832Z,907.43
2018-09-09T03:13:13.836Z,938.13
2018-09-09T03:15:41.840Z,982.97
2018-09-09T03:18:09.830Z,976.67
2018-09-09T03:20:38.661Z,951.37
2018-09-09T03:23:06.643Z,953.03
2018-09-09T03:25:34.643Z,840.07
2018-09-09T03:28:02.638Z,822.37
2018-09-09T03:30:30.675Z,869.13
2018-09-09T03:32:58.663Z,784.73
2018-09-09T03:35:27.162Z,719.03
2018-09-09T03:37:55.159Z,718.73
2018-09-09T03:40:23.159Z,696.63
2018-09-09T03:42:51.160Z,651.43
2018-09-09T03:45:19.161Z,743.93
2018-09-09T03:47:47.155Z,603.40
2018-09-09T03:50:15.159Z,533.80
2018-09-09T03:52:45.331Z,691.10
2018-09-09T03:55:13.331Z,625.50
2018-09-09T03:57:41.336Z,650.93
2018-09-09T04:00:09.332Z,532.77
2018-09-09T04:02:37.358Z,522.40
2018-09-09T04:05:05.450Z,574.27
2018-09-09T04:07:33.455Z,652.17
2018-09-09T04:10:01.541Z,726.23
2018-09-09T04:12:29.494Z,763.17
2018-09-09T04:14:57.484Z,781.63
2018-09-09T04:17:25.495Z,781.00
2018-09-09T04:19:53.499Z,554.97
2018-09-09T04:22:21.523Z,445.00
2018-09-09T04:24:49.515Z,391.90
2018-09-09T04:27:17.523Z,405.27
2018-09-09T04:29:45.516Z,351.63
2018-09-09T04:32:13.520Z,478.13
2018-09-09T04:34:41.527Z,369.77
2018-09-09T04:37:09.523Z,377.53
2018-09-09T04:39:37.524Z,439.80
2018-09-09T04:42:05.526Z,437.87
2018-09-09T04:44:33.507Z,426.43
2018-09-09T04:47:01.499Z,215.40
2018-09-09T04:49:29.490Z,135.30
2018-09-09T04:51:57.504Z,99.37
2018-09-09T04:54:25.499Z,347.23
2018-09-09T04:56:53.543Z,320.27
2018-09-09T04:59:21.534Z,261.30
2018-09-09T05:01:49.530Z,139.00
2018-09-09T05:04:17.514Z,86.83
2018-09-09T05:06:45.579Z,54.17
2018-09-09T05:09:13.587Z,134.53
2018-09-09T05:11:41.611Z,184.37
2018-09-09T05:14:09.608Z,232.53
2018-09-09T05:16:37.606Z,292.60
2018-09-09T05:19:05.826Z,296.77
2018-09-09T05:21:33.832Z,318.50
2018-09-09T05:24:01.840Z,469.93
2018-09-09T05:26:29.834Z,829.80
2018-09-09T05:28:57.823Z,804.93
2018-09-09T05:31:25.843Z,740.83
2018-09-09T05:33:53.846Z,940.47
2018-09-09T05:36:21.848Z,878.73
2018-09-09T05:38:49.844Z,899.57
2018-09-09T05:41:17.842Z,847.73
2018-09-09T05:43:45.843Z,778.90
2018-09-09T05:46:13.847Z,893.83
2018-09-09T05:48:41.842Z,946.07
2018-09-09T05:51:10.020Z,999.90
2018-09-09T05:53:38.019Z,999.90
2018-09-09T05:56:06.023Z,999.90
2018-09-09T05:58:34.040Z,999.90
2018-09-09T06:01:02.120Z,999.90
2018-09-09T06:03:30.127Z,999.90
2018-09-09T06:05:58.151Z,886.83
2018-09-09T06:08:26.168Z,995.00
2018-09-09T06:10:55.327Z,999.90
2018-09-09T06:13:24.767Z,999.90
2018-09-09T06:15:52.775Z,999.90
2018-09-09T06:18:20.781Z,866.33
2018-09-09T06:20:48.870Z,581.37
2018-09-09T06:23:16.875Z,117.60
2018-09-09T06:25:45.391Z,684.70
2018-09-09T06:28:13.423Z,996.43
2018-09-09T06:30:41.462Z,594.17
2018-09-09T06:33:09.488Z,76.13
2018-09-09T06:35:37.623Z,268.87
2018-09-09T06:38:05.631Z,726.50
2018-09-09T06:40:33.700Z,83.23
2018-09-09T06:43:01.815Z,11.50
2018-09-09T06:45:29.853Z,7.77
2018-09-09T06:47:57.950Z,17.70
2018-09-09T06:50:26.223Z,52.27
2018-09-09T06:52:54.307Z,7.93
2018-09-09T06:55:22.448Z,6.27
2018-09-09T06:57:50.494Z,5.30
2018-09-09T07:00:18.583Z,4.00
2018-09-09T07:02:46.622Z,3.53
2018-09-09T07:05:14.634Z,3.63
2018-09-09T07:07:42.639Z,3.07
2018-09-09T07:10:10.716Z,2.60
2018-09-09T07:12:38.777Z,2.50
2018-09-09T07:15:06.771Z,3.07
2018-09-09T07:17:34.773Z,2.40
2018-09-09T07:20:02.759Z,3.27
2018-09-09T07:22:30.779Z,2.57
2018-09-09T07:24:58.788Z,2.77
2018-09-09T07:27:26.802Z,2.50
2018-09-09T07:29:54.792Z,3.53
2018-09-09T07:32:22.798Z,2.73
2018-09-09T07:34:50.784Z,3.20
2018-09-09T07:37:19.561Z,2.90
2018-09-09T07:39:47.578Z,2.80
2018-09-09T07:42:15.588Z,2.63
2018-09-09T07:44:44.284Z,3.40
2018-09-09T07:47:12.280Z,2.93
2018-09-09T07:49:40.547Z,2.67
2018-09-09T07:52:08.594Z,2.97
2018-09-09T07:54:36.611Z,2.83
2018-09-09T07:57:04.712Z,3.43
2018-09-09T07:59:32.707Z,2.93
2018-09-09T08:02:00.712Z,3.10
2018-09-09T08:04:28.710Z,4.30
2018-09-09T08:06:56.699Z,2.40
2018-09-09T08:09:24.707Z,3.37
2018-09-09T08:11:52.678Z,3.00
2018-09-09T08:14:20.671Z,2.93
2018-09-09T08:16:48.647Z,2.83
2018-09-09T08:19:16.643Z,2.80
2018-09-09T08:21:44.619Z,3.03
2018-09-09T08:24:12.632Z,2.83
2018-09-09T08:26:40.634Z,2.40
2018-09-09T08:29:08.623Z,3.37
2018-09-09T08:31:36.607Z,2.83
2018-09-09T08:34:04.659Z,3.20
2018-09-09T08:36:32.646Z,2.70
2018-09-09T08:39:00.827Z,3.03
2018-09-09T08:41:28.835Z,2.47
2018-09-09T08:43:56.828Z,2.80
2018-09-09T08:46:24.815Z,2.53
2018-09-09T08:48:52.811Z,2.47
2018-09-09T08:51:21.583Z,2.90
2018-09-09T08:53:50.655Z,2.70
2018-09-09T08:56:18.893Z,2.67
2018-09-09T08:58:47.147Z,2.73
2018-09-09T09:01:15.157Z,2.63
2018-09-09T09:03:43.222Z,2.80
2018-09-09T09:06:11.224Z,2.50
2018-09-09T09:08:39.239Z,2.80
2018-09-09T09:11:07.232Z,2.60
2018-09-09T09:13:35.243Z,2.83
2018-09-09T09:16:03.239Z,3.23
2018-09-09T09:18:31.256Z,2.80
2018-09-09T09:20:59.246Z,2.90
2018-09-09T09:23:27.333Z,2.40
2018-09-09T09:25:55.415Z,2.50
2018-09-09T09:28:23.995Z,3.03
2018-09-09T09:30:55.387Z,2.57
2018-09-09T09:33:27.670Z,2.87
2018-09-09T09:35:55.754Z,2.63
2018-09-09T09:38:25.238Z,3.03
2018-09-09T09:40:53.446Z,3.33
2018-09-09T09:43:21.357Z,3.40
2018-09-09T09:45:50.175Z,3.53
2018-09-09T09:48:18.716Z,2.97
2018-09-09T09:50:46.706Z,3.10
2018-09-09T09:53:14.775Z,3.57
2018-09-09T09:55:42.698Z,3.20
2018-09-09T09:58:10.683Z,2.70
2018-09-09T10:00:48.535Z,3.20
2018-09-09T10:03:16.787Z,2.40
2018-09-09T10:05:44.775Z,3.47
2018-09-09T10:08:12.767Z,3.30
2018-09-09T10:10:40.755Z,2.87
2018-09-09T10:13:08.739Z,3.07
2018-09-09T10:15:36.736Z,4.80
2018-09-09T10:18:11.063Z,3.40
2018-09-09T10:20:39.091Z,3.23
2018-09-09T10:23:07.090Z,3.00
2018-09-09T10:25:35.178Z,3.13
2018-09-09T10:28:03.171Z,3.00
2018-09-09T10:30:31.176Z,2.80
2018-09-09T10:32:59.229Z,3.00
2018-09-09T10:35:27.259Z,2.90
2018-09-09T10:37:55.343Z,3.27
2018-09-09T10:40:23.543Z,2.77
2018-09-09T10:42:51.579Z,3.20
2018-09-09T10:45:19.617Z,2.83
2018-09-09T10:47:47.635Z,2.70
2018-09-09T10:50:15.663Z,2.90
2018-09-09T10:52:43.707Z,2.83
2018-09-09T10:55:11.711Z,2.70
2018-09-09T10:57:39.699Z,2.43
2018-09-09T11:00:07.810Z,2.77
2018-09-09T11:02:35.799Z,2.50
2018-09-09T11:05:03.821Z,2.70
2018-09-09T11:07:31.836Z,2.57
2018-09-09T11:09:59.844Z,2.63
2018-09-09T11:12:29.673Z,3.03
2018-09-09T11:14:58.875Z,2.80
2018-09-09T11:17:27.183Z,2.83
2018-09-09T11:19:55.592Z,3.20
2018-09-09T11:22:23.591Z,3.10
2018-09-09T11:24:51.623Z,2.60
2018-09-09T11:27:19.655Z,2.77
2018-09-09T11:29:47.686Z,3.50
2018-09-09T11:32:15.731Z,3.20
2018-09-09T11:34:43.960Z,3.20
2018-09-09T11:37:12.258Z,2.97
2018-09-09T11:39:40.359Z,2.90
2018-09-09T11:42:08.407Z,2.80
2018-09-09T11:44:36.411Z,2.80
2018-09-09T11:47:04.406Z,3.10
2018-09-09T11:49:32.404Z,3.00
2018-09-09T11:52:00.402Z,3.30
2018-09-09T11:54:28.425Z,2.97
2018-09-09T11:56:56.402Z,2.50
2018-09-09T11:59:24.520Z,2.60
2018-09-09T12:01:52.557Z,3.07
2018-09-09T12:04:20.507Z,2.80
2018-09-09T12:06:48.495Z,3.20
2018-09-09T12:09:16.498Z,2.63
2018-09-09T12:11:44.492Z,2.90
2018-09-09T12:14:12.479Z,2.90
2018-09-09T12:16:41.655Z,2.70
2018-09-09T12:19:15.201Z,2.67
2018-09-09T12:21:43.536Z,2.60
2018-09-09T12:24:11.560Z,2.63
2018-09-09T12:26:39.675Z,2.43
2018-09-09T12:29:07.675Z,2.77
2018-09-09T12:31:35.682Z,2.73
2018-09-09T12:34:03.671Z,2.83
2018-09-09T12:36:31.672Z,2.90
2018-09-09T12:38:59.667Z,2.80
2018-09-09T12:41:27.662Z,2.80
2018-09-09T12:44:01.063Z,2.97
2018-09-09T12:46:34.544Z,3.13
2018-09-09T12:49:04.443Z,2.70
2018-09-09T12:51:32.524Z,2.77
2018-09-09T12:54:00.587Z,3.07
2018-09-09T12:56:28.594Z,2.87
2018-09-09T12:58:57.022Z,3.93
2018-09-09T13:01:25.024Z,3.30
2018-09-09T13:03:53.007Z,3.20
2018-09-09T13:06:21.003Z,3.43
2018-09-09T13:08:49.006Z,3.10
2018-09-09T13:11:17.049Z,3.00
2018-09-09T13:13:45.066Z,3.13
2018-09-09T13:16:13.070Z,3.33
2018-09-09T13:18:41.106Z,3.50
2018-09-09T13:21:09.143Z,4.60
2018-09-09T13:23:37.143Z,3.20
2018-09-09T13:26:05.227Z,3.07
2018-09-09T13:28:33.228Z,3.70
2018-09-09T13:31:01.347Z,4.40
2018-09-09T13:33:29.352Z,3.93
2018-09-09T13:35:57.351Z,3.40
2018-09-09T13:38:25.370Z,3.67
2018-09-09T13:40:53.376Z,3.20
2018-09-09T13:43:21.387Z,3.50
2018-09-09T13:45:49.386Z,2.80
2018-09-09T13:48:17.463Z,3.33
2018-09-09T13:50:45.395Z,3.20
2018-09-09T13:53:13.571Z,3.07
2018-09-09T13:55:41.923Z,3.10
2018-09-09T13:58:09.970Z,2.77
2018-09-09T14:00:37.932Z,3.10
2018-09-09T14:03:05.945Z,3.43
2018-09-09T14:05:33.999Z,3.63
2018-09-09T14:08:02.003Z,3.40
2018-09-09T14:10:30.031Z,3.23
2018-09-09T14:12:58.054Z,3.43
2018-09-09T14:15:26.229Z,3.10
2018-09-09T14:17:54.219Z,3.70
2018-09-09T14:20:22.267Z,3.10
2018-09-09T14:22:50.259Z,3.60
2018-09-09T14:25:18.285Z,3.17
2018-09-09T14:27:46.315Z,3.80
2018-09-09T14:30:14.409Z,3.50
2018-09-09T14:32:42.534Z,3.80
2018-09-09T14:35:10.536Z,3.30
2018-09-09T14:37:38.543Z,2.80
2018-09-09T14:40:07.666Z,3.30
2018-09-09T14:42:35.691Z,2.90
2018-09-09T14:45:03.700Z,3.30
2018-09-09T14:47:31.933Z,3.67
2018-09-09T14:49:59.939Z,3.40
2018-09-09T14:52:27.944Z,2.60
2018-09-09T14:54:55.947Z,3.50
2018-09-09T14:57:24.184Z,3.17
2018-09-09T14:59:52.266Z,3.37
2018-09-09T15:02:20.272Z,3.23
2018-09-09T15:04:48.287Z,3.40
2018-09-09T15:07:16.315Z,3.40
2018-09-09T15:09:44.315Z,2.80
2018-09-09T15:12:12.387Z,2.50
2018-09-09T15:14:40.385Z,3.13
2018-09-09T15:17:08.663Z,2.70
2018-09-09T15:19:37.386Z,3.20
2018-09-09T15:22:05.416Z,2.90
2018-09-09T15:24:33.506Z,2.63
2018-09-09T15:27:01.616Z,3.10
2018-09-09T15:29:29.647Z,2.53
2018-09-09T15:31:57.764Z,2.77
2018-09-09T15:34:25.804Z,2.93
2018-09-09T15:36:54.255Z,2.30
2018-09-09T15:39:22.263Z,3.57
2018-09-09T15:41:50.300Z,2.80
2018-09-09T15:44:18.527Z,2.80
2018-09-09T15:46:48.926Z,3.30
2018-09-09T15:49:17.047Z,2.50
2018-09-09T15:51:45.186Z,2.90
2018-09-09T15:54:13.127Z,2.87
2018-09-09T15:56:41.128Z,2.77
2018-09-09T15:59:09.124Z,2.50
2018-09-09T16:01:37.140Z,2.50
2018-09-09T16:04:05.135Z,2.87
2018-09-09T16:06:33.139Z,2.57
2018-09-09T16:09:01.152Z,2.83
2018-09-09T16:11:29.142Z,3.07
2018-09-09T16:13:57.192Z,3.10
2018-09-09T16:16:26.230Z,3.13
2018-09-09T16:18:54.568Z,3.20
2018-09-09T16:21:23.110Z,2.93
2018-09-09T16:23:51.196Z,2.90
2018-09-09T16:26:19.188Z,2.80
2018-09-09T16:28:47.267Z,2.60
2018-09-09T16:31:15.263Z,2.97
2018-09-09T16:33:43.247Z,2.50
2018-09-09T16:36:11.245Z,2.60
2018-09-09T16:38:39.227Z,2.60
2018-09-09T16:41:07.452Z,4.40
2018-09-09T16:43:35.458Z,2.93
2018-09-09T16:46:03.559Z,2.73
2018-09-09T16:48:31.801Z,2.90
2018-09-09T16:50:59.910Z,3.30
2018-09-09T16:53:28.017Z,3.03
2018-09-09T16:55:56.177Z,3.10
2018-09-09T16:58:24.171Z,3.03
2018-09-09T17:00:52.259Z,2.90
2018-09-09T17:03:21.043Z,2.87
2018-09-09T17:05:49.139Z,2.80
2018-09-09T17:08:17.147Z,3.40
2018-09-09T17:10:45.171Z,2.60
2018-09-09T17:13:13.187Z,2.60
2018-09-09T17:15:41.199Z,2.23
2018-09-09T17:18:09.271Z,2.50
2018-09-09T17:20:37.347Z,2.57
2018-09-09T17:23:05.388Z,2.73
2018-09-09T17:25:33.411Z,2.57
2018-09-09T17:28:01.564Z,3.50
2018-09-09T17:30:29.728Z,3.00
2018-09-09T17:32:57.723Z,2.97
2018-09-09T17:35:25.729Z,2.40
2018-09-09T17:37:53.730Z,6.47
2018-09-09T17:40:21.730Z,4.03
2018-09-09T17:42:49.726Z,5.53
2018-09-09T17:45:17.714Z,7.60
2018-09-09T17:47:45.716Z,8.07
2018-09-09T17:50:13.703Z,5.57
2018-09-09T17:52:41.716Z,12.87
2018-09-09T17:55:09.747Z,15.20
2018-09-09T17:57:37.755Z,14.03
2018-09-09T18:00:09.228Z,14.17
2018-09-09T18:02:37.257Z,10.10
2018-09-09T18:05:05.252Z,12.73
2018-09-09T18:07:33.269Z,8.83
2018-09-09T18:10:01.256Z,9.43
2018-09-09T18:12:29.255Z,9.87
2018-09-09T18:14:57.257Z,14.67
2018-09-09T18:17:25.349Z,13.67
2018-09-09T18:19:53.264Z,20.87
2018-09-09T18:22:21.339Z,66.33
2018-09-09T18:24:49.363Z,237.20
2018-09-09T18:27:17.487Z,242.63
2018-09-09T18:29:45.510Z,155.93
2018-09-09T18:32:13.503Z,280.83
2018-09-09T18:34:41.498Z,462.20
2018-09-09T18:37:09.534Z,640.17
2018-09-09T18:39:37.563Z,613.43
2018-09-09T18:42:05.575Z,485.80
2018-09-09T18:44:33.574Z,500.17
2018-09-09T18:47:11.295Z,678.43
2018-09-09T18:49:49.987Z,495.87
2018-09-09T18:52:26.644Z,499.93
2018-09-09T18:55:02.168Z,466.10
2018-09-09T18:57:31.299Z,514.60
2018-09-09T18:59:59.383Z,509.10
2018-09-09T19:02:27.349Z,637.27
2018-09-09T19:04:55.355Z,423.67
2018-09-09T19:07:23.376Z,212.53
2018-09-09T19:09:51.391Z,255.90
2018-09-09T19:12:19.779Z,282.43
2018-09-09T19:14:48.417Z,262.70
2018-09-09T19:17:16.495Z,231.23
2018-09-09T19:19:44.548Z,246.03
2018-09-09T19:22:12.564Z,213.67
2018-09-09T19:24:40.651Z,226.10
2018-09-09T19:27:08.650Z,223.33
2018-09-09T19:29:36.648Z,310.03
2018-09-09T19:32:04.646Z,352.53
2018-09-09T19:34:32.650Z,368.67
2018-09-09T19:37:00.651Z,358.30
2018-09-09T19:39:28.659Z,428.00
2018-09-09T19:41:56.651Z,605.00
2018-09-09T19:44:24.736Z,653.53
2018-09-09T19:46:52.735Z,713.23
2018-09-09T19:49:20.823Z,614.13
2018-09-09T19:51:48.863Z,553.97
2018-09-09T19:54:16.859Z,560.80
2018-09-09T19:56:44.834Z,529.97
2018-09-09T19:59:12.903Z,549.00
2018-09-09T20:01:40.895Z,340.87
2018-09-09T20:04:08.965Z,319.17
2018-09-09T20:06:36.967Z,249.33
2018-09-09T20:09:06.519Z,199.87
2018-09-09T20:11:34.618Z,352.60
2018-09-09T20:14:02.618Z,225.73
2018-09-09T20:16:30.691Z,214.73
2018-09-09T20:18:58.805Z,214.37
2018-09-09T20:21:26.813Z,285.60
2018-09-09T20:23:54.879Z,283.60
2018-09-09T20:26:22.969Z,271.17
2018-09-09T20:28:51.029Z,208.57
2018-09-09T20:31:19.067Z,215.50
2018-09-09T20:33:47.188Z,320.50
2018-09-09T20:36:15.196Z,374.73
2018-09-09T20:38:43.220Z,394.27
2018-09-09T20:41:11.207Z,430.97
2018-09-09T20:43:39.208Z,407.00
2018-09-09T20:46:07.191Z,336.60
2018-09-09T20:48:35.283Z,291.70
2018-09-09T20:51:03.266Z,422.60
2018-09-09T20:53:31.295Z,533.10
2018-09-09T20:55:59.509Z,519.77
2018-09-09T20:58:27.517Z,516.10
2018-09-09T21:00:55.515Z,513.57
2018-09-09T21:03:23.544Z,702.60
2018-09-09T21:05:51.680Z,716.30
2018-09-09T21:08:19.742Z,761.67
2018-09-09T21:10:47.765Z,539.57
2018-09-09T21:13:15.949Z,415.63
2018-09-09T21:15:43.973Z,377.97
2018-09-09T21:18:12.035Z,409.77
2018-09-09T21:20:40.053Z,736.80
2018-09-09T21:23:08.067Z,557.33
2018-09-09T21:25:36.084Z,398.07
2018-09-09T21:28:04.520Z,475.10
2018-09-09T21:30:32.614Z,396.73
2018-09-09T21:33:00.607Z,313.13
2018-09-09T21:35:28.728Z,372.20
2018-09-09T21:37:56.768Z,325.47
2018-09-09T21:40:24.808Z,320.13
2018-09-09T21:42:52.850Z,341.00
2018-09-09T21:45:20.884Z,317.97
2018-09-09T21:47:48.924Z,378.20
2018-09-09T21:50:16.956Z,361.73
2018-09-09T21:52:44.985Z,439.03
2018-09-09T21:55:13.105Z,380.07
2018-09-09T21:57:41.156Z,311.53
2018-09-09T22:00:10.865Z,305.97
2018-09-09T22:02:41.468Z,253.00
2018-09-09T22:05:09.602Z,199.23
2018-09-09T22:07:37.864Z,203.20
2018-09-09T22:10:05.970Z,396.13
2018-09-09T22:12:34.031Z,589.73
2018-09-09T22:15:02.108Z,785.20
2018-09-09T22:17:30.136Z,656.77
2018-09-09T22:19:58.187Z,632.43
2018-09-09T22:22:26.229Z,682.17
2018-09-09T22:24:54.274Z,523.13
2018-09-09T22:27:22.299Z,528.43
2018-09-09T22:29:50.341Z,781.57
2018-09-09T22:32:18.331Z,807.90
2018-09-09T22:34:46.354Z,730.00
2018-09-09T22:37:14.354Z,668.03
2018-09-09T22:39:42.367Z,655.67
2018-09-09T22:42:10.368Z,521.43
2018-09-09T22:44:38.380Z,581.13
2018-09-09T22:47:06.382Z,550.57
2018-09-09T22:49:34.386Z,463.90
2018-09-09T22:52:02.499Z,435.90
2018-09-09T22:54:30.520Z,311.40
2018-09-09T22:56:58.515Z,335.00
2018-09-09T22:59:26.522Z,564.60
2018-09-09T23:01:54.528Z,461.47
2018-09-09T23:04:22.547Z,665.37
2018-09-09T23:06:50.600Z,674.47
2018-09-09T23:09:18.599Z,677.90
2018-09-09T23:11:46.598Z,640.07
2018-09-09T23:14:14.602Z,673.63
2018-09-09T23:16:42.598Z,607.93
2018-09-09T23:19:10.595Z,587.83
2018-09-09T23:21:38.637Z,550.83
2018-09-09T23:24:06.632Z,564.67
2018-09-09T23:26:34.634Z,579.07
2018-09-09T23:29:02.656Z,517.17
2018-09-09T23:31:30.668Z,496.50
2018-09-09T23:33:58.734Z,641.10
2018-09-09T23:36:26.744Z,625.43
2018-09-09T23:38:54.750Z,638.07
2018-09-09T23:41:22.756Z,678.90
2018-09-09T23:43:50.752Z,790.37
2018-09-09T23:46:18.764Z,855.60
2018-09-09T23:48:46.767Z,738.63
2018-09-09T23:51:14.774Z,867.30
2018-09-09T23:53:42.779Z,925.60
2018-09-09T23:56:10.793Z,859.53
2018-09-09T23:58:38.794Z,972.57
